sensor_id;sensor_type;location;lat;lon;timestamp;pressure;altitude;pressure_sealevel;temperature;humidity
75403;BME280;63975;47.538;18.972;2022-11-20T00:01:56;98779.31;;;18.01;38.01
75403;BME280;63975;47.538;18.972;2022-11-20T00:04:59;98785.59;;;18.00;38.29
75403;BME280;63975;47.538;18.972;2022-11-20T00:08:01;98786.19;;;18.02;37.77
75403;BME280;63975;47.538;18.972;2022-11-20T00:11:26;98788.22;;;18.00;38.01
75403;BME280;63975;47.538;18.972;2022-11-20T00:14:29;98773.44;;;17.99;37.81
75403;BME280;63975;47.538;18.972;2022-11-20T00:17:31;98771.44;;;18.01;38.01
75403;BME280;63975;47.538;18.972;2022-11-20T00:20:33;98771.19;;;17.96;38.14
75403;BME280;63975;47.538;18.972;2022-11-20T00:23:36;98777.88;;;17.99;38.21
75403;BME280;63975;47.538;18.972;2022-11-20T00:26:38;98777.88;;;17.99;37.84
75403;BME280;63975;47.538;18.972;2022-11-20T00:29:40;98773.66;;;17.98;37.93
75403;BME280;63975;47.538;18.972;2022-11-20T00:32:42;98758.88;;;17.97;38.17
75403;BME280;63975;47.538;18.972;2022-11-20T00:35:45;98765.94;;;17.96;38.21
75403;BME280;63975;47.538;18.972;2022-11-20T00:38:51;98775.84;;;17.94;38.34
75403;BME280;63975;47.538;18.972;2022-11-20T00:41:53;98791.41;;;17.96;38.03
75403;BME280;63975;47.538;18.972;2022-11-20T00:44:56;98806.34;;;17.95;37.91
75403;BME280;63975;47.538;18.972;2022-11-20T00:47:58;98797.66;;;17.95;38.00
75403;BME280;63975;47.538;18.972;2022-11-20T00:51:00;98785.53;;;17.94;37.95
75403;BME280;63975;47.538;18.972;2022-11-20T00:54:03;98781.03;;;17.88;38.16
75403;BME280;63975;47.538;18.972;2022-11-20T00:57:05;98777.00;;;17.92;37.96
75403;BME280;63975;47.538;18.972;2022-11-20T01:00:08;98780.00;;;17.89;37.78
75403;BME280;63975;47.538;18.972;2022-11-20T01:03:10;98775.78;;;17.88;37.99
75403;BME280;63975;47.538;18.972;2022-11-20T01:06:15;98776.41;;;17.90;38.19
75403;BME280;63975;47.538;18.972;2022-11-20T01:09:18;98788.53;;;17.91;37.78
75403;BME280;63975;47.538;18.972;2022-11-20T01:12:21;98792.59;;;17.93;37.85
75403;BME280;63975;47.538;18.972;2022-11-20T01:15:23;98784.28;;;17.90;37.97
75403;BME280;63975;47.538;18.972;2022-11-20T01:18:25;98788.34;;;17.92;37.84
75403;BME280;63975;47.538;18.972;2022-11-20T01:21:30;98790.72;;;17.87;38.29
75403;BME280;63975;47.538;18.972;2022-11-20T01:24:32;98790.72;;;17.87;38.01
75403;BME280;63975;47.538;18.972;2022-11-20T01:27:35;98795.16;;;17.87;38.11
75403;BME280;63975;47.538;18.972;2022-11-20T01:30:37;98788.28;;;17.86;38.04
75403;BME280;63975;47.538;18.972;2022-11-20T01:33:40;98781.41;;;17.85;37.82
75403;BME280;63975;47.538;18.972;2022-11-20T01:36:43;98771.69;;;17.85;37.99
75403;BME280;63975;47.538;18.972;2022-11-20T01:39:46;98763.03;;;17.85;38.00
75403;BME280;63975;47.538;18.972;2022-11-20T01:42:57;98767.47;;;17.84;38.17
75403;BME280;63975;47.538;18.972;2022-11-20T01:46:22;98755.16;;;17.85;37.95
75403;BME280;63975;47.538;18.972;2022-11-20T01:52:56;98746.84;;;17.81;38.07
75403;BME280;63975;47.538;18.972;2022-11-20T01:56:05;98741.75;;;17.80;37.86
75403;BME280;63975;47.538;18.972;2022-11-20T01:59:12;98740.34;;;17.77;37.90
75403;BME280;63975;47.538;18.972;2022-11-20T02:02:15;98743.41;;;17.81;37.70
75403;BME280;63975;47.538;18.972;2022-11-20T02:05:32;98746.84;;;17.81;37.70
75403;BME280;63975;47.538;18.972;2022-11-20T02:08:36;98756.69;;;17.79;38.10
75403;BME280;63975;47.538;18.972;2022-11-20T02:11:39;98757.72;;;17.78;37.87
75403;BME280;63975;47.538;18.972;2022-11-20T02:14:41;98754.44;;;17.76;38.19
75403;BME280;63975;47.538;18.972;2022-11-20T02:17:44;98748.38;;;17.76;38.10
75403;BME280;63975;47.538;18.972;2022-11-20T02:20:48;98741.75;;;17.80;38.10
75403;BME280;63975;47.538;18.972;2022-11-20T02:24:09;98738.69;;;17.76;37.93
75403;BME280;63975;47.538;18.972;2022-11-20T02:27:15;98744.59;;;17.78;37.71
75403;BME280;63975;47.538;18.972;2022-11-20T02:30:19;98750.03;;;17.77;37.87
75403;BME280;63975;47.538;18.972;2022-11-20T02:33:21;98738.69;;;17.76;37.91
75403;BME280;63975;47.538;18.972;2022-11-20T02:36:26;98721.75;;;17.79;37.75
75403;BME280;63975;47.538;18.972;2022-11-20T02:39:28;98719.50;;;17.76;37.97
75403;BME280;63975;47.538;18.972;2022-11-20T02:42:31;98732.63;;;17.76;37.84
75403;BME280;63975;47.538;18.972;2022-11-20T02:45:33;98718.69;;;17.75;38.10
75403;BME280;63975;47.538;18.972;2022-11-20T02:48:36;98717.09;;;17.74;38.10
75403;BME280;63975;47.538;18.972;2022-11-20T02:51:38;98727.38;;;17.76;37.71
75403;BME280;63975;47.538;18.972;2022-11-20T02:54:40;98737.88;;;17.76;38.15
75403;BME280;63975;47.538;18.972;2022-11-20T02:57:43;98735.25;;;17.76;37.83
75403;BME280;63975;47.538;18.972;2022-11-20T03:00:45;98725.72;;;17.68;37.73
75403;BME280;63975;47.538;18.972;2022-11-20T03:03:47;98720.88;;;17.72;38.12
75403;BME280;63975;47.538;18.972;2022-11-20T03:06:54;98709.59;;;17.71;37.88
75403;BME280;63975;47.538;18.972;2022-11-20T03:09:56;98723.31;;;17.73;38.08
75403;BME280;63975;47.538;18.972;2022-11-20T03:12:59;98732.19;;;17.72;37.97
75403;BME280;63975;47.538;18.972;2022-11-20T03:16:21;98724.97;;;17.74;37.99
75403;BME280;63975;47.538;18.972;2022-11-20T03:19:24;98708.78;;;17.71;38.19
75403;BME280;63975;47.538;18.972;2022-11-20T03:22:29;98717.84;;;17.68;38.08
75403;BME280;63975;47.538;18.972;2022-11-20T03:25:31;98734.81;;;17.72;37.66
75403;BME280;63975;47.538;18.972;2022-11-20T03:28:34;98741.09;;;17.71;37.68
75403;BME280;63975;47.538;18.972;2022-11-20T03:31:39;98740.28;;;17.71;37.66
75403;BME280;63975;47.538;18.972;2022-11-20T03:34:42;98739.47;;;17.70;38.10
75403;BME280;63975;47.538;18.972;2022-11-20T03:37:44;98724.53;;;17.71;38.03
75403;BME280;63975;47.538;18.972;2022-11-20T03:40:47;98730.75;;;17.70;37.78
75403;BME280;63975;47.538;18.972;2022-11-20T03:43:58;98732.78;;;17.68;38.02
75403;BME280;63975;47.538;18.972;2022-11-20T03:47:01;98726.72;;;17.67;37.86
75403;BME280;63975;47.538;18.972;2022-11-20T03:50:03;98718.84;;;17.67;37.94
75403;BME280;63975;47.538;18.972;2022-11-20T03:53:06;98715.22;;;17.68;37.85
75403;BME280;63975;47.538;18.972;2022-11-20T03:56:09;98720.47;;;17.68;37.94
75403;BME280;63975;47.538;18.972;2022-11-20T03:59:12;98727.31;;;17.69;38.00
75403;BME280;63975;47.538;18.972;2022-11-20T04:02:14;98737.81;;;17.69;37.77
75403;BME280;63975;47.538;18.972;2022-11-20T04:05:16;98718.84;;;17.67;38.19
75403;BME280;63975;47.538;18.972;2022-11-20T04:08:18;98716.81;;;17.69;37.97
75403;BME280;63975;47.538;18.972;2022-11-20T04:11:27;98710.97;;;17.67;38.07
75403;BME280;63975;47.538;18.972;2022-11-20T04:14:30;98710.31;;;17.65;37.85
75403;BME280;63975;47.538;18.972;2022-11-20T04:17:32;98700.03;;;17.63;37.75
75403;BME280;63975;47.538;18.972;2022-11-20T04:20:35;98697.00;;;17.67;38.04
75403;BME280;63975;47.538;18.972;2022-11-20T04:23:38;98686.91;;;17.63;37.86
75403;BME280;63975;47.538;18.972;2022-11-20T04:26:41;98684.88;;;17.66;38.20
75403;BME280;63975;47.538;18.972;2022-11-20T04:29:43;98687.50;;;17.66;37.94
75403;BME280;63975;47.538;18.972;2022-11-20T04:32:45;98668.53;;;17.63;37.84
75403;BME280;63975;47.538;18.972;2022-11-20T04:35:47;98684.06;;;17.65;38.04
75403;BME280;63975;47.538;18.972;2022-11-20T04:38:51;98683.44;;;17.63;37.82
75403;BME280;63975;47.538;18.972;2022-11-20T04:41:58;98684.25;;;17.63;38.00
75403;BME280;63975;47.538;18.972;2022-11-20T04:45:18;98680.81;;;17.63;37.81
75403;BME280;63975;47.538;18.972;2022-11-20T04:48:21;98672.13;;;17.62;38.03
75403;BME280;63975;47.538;18.972;2022-11-20T04:51:23;98673.78;;;17.63;38.11
75403;BME280;63975;47.538;18.972;2022-11-20T04:54:26;98665.91;;;17.63;37.65
75403;BME280;63975;47.538;18.972;2022-11-20T04:57:28;98657.59;;;17.60;37.90
75403;BME280;63975;47.538;18.972;2022-11-20T05:00:30;98658.19;;;17.62;37.85
75403;BME280;63975;47.538;18.972;2022-11-20T05:03:33;98662.66;;;17.61;38.02
75403;BME280;63975;47.538;18.972;2022-11-20T05:06:42;98670.31;;;17.63;37.84
75403;BME280;63975;47.538;18.972;2022-11-20T05:09:44;98680.81;;;17.63;37.84
75403;BME280;63975;47.538;18.972;2022-11-20T05:12:46;98677.22;;;17.64;38.17
75403;BME280;63975;47.538;18.972;2022-11-20T05:15:48;98672.13;;;17.62;37.82
75403;BME280;63975;47.538;18.972;2022-11-20T05:18:52;98662.84;;;17.60;37.96
75403;BME280;63975;47.538;18.972;2022-11-20T05:21:55;98668.69;;;17.62;38.03
75403;BME280;63975;47.538;18.972;2022-11-20T05:24:57;98651.13;;;17.62;38.21
75403;BME280;63975;47.538;18.972;2022-11-20T05:27:59;98658.41;;;17.60;38.11
75403;BME280;63975;47.538;18.972;2022-11-20T05:31:10;98640.41;;;17.57;38.13
75403;BME280;63975;47.538;18.972;2022-11-20T05:34:13;98639.81;;;17.62;37.91
75403;BME280;63975;47.538;18.972;2022-11-20T05:37:15;98633.13;;;17.59;37.82
75403;BME280;63975;47.538;18.972;2022-11-20T05:40:17;98634.78;;;17.60;37.92
75403;BME280;63975;47.538;18.972;2022-11-20T05:43:20;98649.72;;;17.60;38.14
75403;BME280;63975;47.538;18.972;2022-11-20T05:46:22;98648.72;;;17.61;37.99
75403;BME280;63975;47.538;18.972;2022-11-20T05:49:30;98652.34;;;17.60;38.14
75403;BME280;63975;47.538;18.972;2022-11-20T05:52:32;98656.59;;;17.61;37.93
75403;BME280;63975;47.538;18.972;2022-11-20T05:55:34;98664.84;;;17.58;38.01
75403;BME280;63975;47.538;18.972;2022-11-20T05:58:37;98667.81;;;17.55;38.14
75403;BME280;63975;47.538;18.972;2022-11-20T06:01:40;98677.50;;;17.54;38.21
75403;BME280;63975;47.538;18.972;2022-11-20T06:04:42;98669.44;;;17.56;37.99
75403;BME280;63975;47.538;18.972;2022-11-20T06:07:44;98669.44;;;17.56;38.24
75403;BME280;63975;47.538;18.972;2022-11-20T06:10:46;98675.53;;;17.56;38.15
75403;BME280;63975;47.538;18.972;2022-11-20T06:13:49;98674.53;;;17.57;38.01
75403;BME280;63975;47.538;18.972;2022-11-20T06:16:51;98667.47;;;17.58;38.24
75403;BME280;63975;47.538;18.972;2022-11-20T06:19:54;98672.91;;;17.56;38.14
75403;BME280;63975;47.538;18.972;2022-11-20T06:22:56;98664.03;;;17.57;37.87
75403;BME280;63975;47.538;18.972;2022-11-20T06:26:03;98673.25;;;17.53;38.03
75403;BME280;63975;47.538;18.972;2022-11-20T06:29:06;98663.94;;;17.51;38.17
75403;BME280;63975;47.538;18.972;2022-11-20T06:32:08;98679.13;;;17.55;38.31
75403;BME280;63975;47.538;18.972;2022-11-20T06:35:11;98680.94;;;17.55;38.27
75403;BME280;63975;47.538;18.972;2022-11-20T06:38:13;98697.84;;;17.52;38.04
75403;BME280;63975;47.538;18.972;2022-11-20T06:41:17;98709.38;;;17.51;38.26
75403;BME280;63975;47.538;18.972;2022-11-20T06:44:20;98704.13;;;17.51;38.14
75403;BME280;63975;47.538;18.972;2022-11-20T06:47:22;98700.03;;;17.49;38.06
75403;BME280;63975;47.538;18.972;2022-11-20T06:50:24;98706.91;;;17.50;38.27
75403;BME280;63975;47.538;18.972;2022-11-20T06:53:27;98716.22;;;17.52;38.11
75403;BME280;63975;47.538;18.972;2022-11-20T06:56:29;98703.31;;;17.51;38.21
75403;BME280;63975;47.538;18.972;2022-11-20T06:59:31;98699.66;;;17.52;38.01
75403;BME280;63975;47.538;18.972;2022-11-20T07:02:33;98687.50;;;17.44;38.43
75403;BME280;63975;47.538;18.972;2022-11-20T07:05:36;98694.41;;;17.52;38.19
75403;BME280;63975;47.538;18.972;2022-11-20T07:08:38;98699.50;;;17.53;37.86
75403;BME280;63975;47.538;18.972;2022-11-20T07:11:41;98700.31;;;17.54;37.80
75403;BME280;63975;47.538;18.972;2022-11-20T07:14:43;98704.75;;;17.53;37.95
75403;BME280;63975;47.538;18.972;2022-11-20T07:17:46;98702.94;;;17.54;37.98
75403;BME280;63975;47.538;18.972;2022-11-20T07:20:48;98713.16;;;17.49;38.27
75403;BME280;63975;47.538;18.972;2022-11-20T07:23:51;98724.31;;;17.51;38.19
75403;BME280;63975;47.538;18.972;2022-11-20T07:26:53;98721.84;;;17.49;38.03
75403;BME280;63975;47.538;18.972;2022-11-20T07:29:55;98725.91;;;17.52;37.96
75403;BME280;63975;47.538;18.972;2022-11-20T07:32:58;98727.91;;;17.50;37.98
75403;BME280;63975;47.538;18.972;2022-11-20T07:36:00;98724.47;;;17.49;38.16
75403;BME280;63975;47.538;18.972;2022-11-20T07:39:03;98717.97;;;17.45;37.83
75403;BME280;63975;47.538;18.972;2022-11-20T07:42:08;98718.41;;;17.49;38.03
75403;BME280;63975;47.538;18.972;2022-11-20T07:45:12;98730.16;;;17.53;38.19
75403;BME280;63975;47.538;18.972;2022-11-20T07:48:14;98728.72;;;17.50;38.02
75403;BME280;63975;47.538;18.972;2022-11-20T07:51:16;98722.06;;;17.48;38.13
75403;BME280;63975;47.538;18.972;2022-11-20T07:54:20;98719.22;;;17.49;38.03
75403;BME280;63975;47.538;18.972;2022-11-20T07:57:22;98721.47;;;17.52;38.01
75403;BME280;63975;47.538;18.972;2022-11-20T08:00:29;98718.03;;;17.52;37.97
75403;BME280;63975;47.538;18.972;2022-11-20T08:03:31;98712.78;;;17.52;38.08
75403;BME280;63975;47.538;18.972;2022-11-20T08:06:35;98721.47;;;17.52;38.04
75403;BME280;63975;47.538;18.972;2022-11-20T08:09:37;98703.31;;;17.51;37.89
75403;BME280;63975;47.538;18.972;2022-11-20T08:12:50;98704.13;;;17.51;38.43
75403;BME280;63975;47.538;18.972;2022-11-20T08:16:12;98716.22;;;17.52;38.08
75403;BME280;63975;47.538;18.972;2022-11-20T08:19:15;98710.38;;;17.50;38.02
75403;BME280;63975;47.538;18.972;2022-11-20T08:22:18;98715.00;;;17.48;38.14
75403;BME280;63975;47.538;18.972;2022-11-20T08:25:20;98715.78;;;17.49;38.11
75403;BME280;63975;47.538;18.972;2022-11-20T08:28:22;98705.94;;;17.51;38.24
75403;BME280;63975;47.538;18.972;2022-11-20T08:31:26;98706.75;;;17.51;38.23
75403;BME280;63975;47.538;18.972;2022-11-20T08:34:29;98700.84;;;17.49;38.03
75403;BME280;63975;47.538;18.972;2022-11-20T08:37:31;98704.13;;;17.51;38.33
75403;BME280;63975;47.538;18.972;2022-11-20T08:40:33;98696.19;;;17.45;38.07
75403;BME280;63975;47.538;18.972;2022-11-20T08:43:36;98714.25;;;17.54;38.32
75403;BME280;63975;47.538;18.972;2022-11-20T08:46:40;98706.19;;;17.56;38.38
75403;BME280;63975;47.538;18.972;2022-11-20T08:49:43;98709.38;;;17.51;38.07
75403;BME280;63975;47.538;18.972;2022-11-20T08:52:45;98724.56;;;17.56;38.13
75403;BME280;63975;47.538;18.972;2022-11-20T08:55:47;98720.31;;;17.55;38.08
75403;BME280;63975;47.538;18.972;2022-11-20T08:58:51;98727.03;;;17.57;38.36
75403;BME280;63975;47.538;18.972;2022-11-20T09:02:16;98721.25;;;17.47;38.38
75403;BME280;63975;47.538;18.972;2022-11-20T09:05:18;98735.88;;;17.56;38.15
75403;BME280;63975;47.538;18.972;2022-11-20T09:08:20;98742.13;;;17.55;38.16
75403;BME280;63975;47.538;18.972;2022-11-20T09:11:22;98738.50;;;17.56;38.22
75403;BME280;63975;47.538;18.972;2022-11-20T09:14:25;98752.25;;;17.58;38.09
75403;BME280;63975;47.538;18.972;2022-11-20T09:17:31;98746.00;;;17.59;38.37
75403;BME280;63975;47.538;18.972;2022-11-20T09:20:33;98734.09;;;17.57;38.14
75403;BME280;63975;47.538;18.972;2022-11-20T09:23:36;98740.97;;;17.58;38.39
75403;BME280;63975;47.538;18.972;2022-11-20T09:26:39;98746.81;;;17.60;38.30
75403;BME280;63975;47.538;18.972;2022-11-20T09:29:41;98742.41;;;17.60;38.23
75403;BME280;63975;47.538;18.972;2022-11-20T09:32:43;98742.41;;;17.60;38.17
75403;BME280;63975;47.538;18.972;2022-11-20T09:35:45;98735.34;;;17.61;38.59
75403;BME280;63975;47.538;18.972;2022-11-20T09:38:48;98731.69;;;17.62;38.25
75403;BME280;63975;47.538;18.972;2022-11-20T09:52:22;98721.56;;;17.59;38.57
75403;BME280;63975;47.538;18.972;2022-11-20T09:55:29;98725.00;;;17.59;38.65
75403;BME280;63975;47.538;18.972;2022-11-20T09:58:36;98731.69;;;17.62;38.54
75403;BME280;63975;47.538;18.972;2022-11-20T10:01:40;98723.66;;;17.63;38.56
75403;BME280;63975;47.538;18.972;2022-11-20T10:04:51;98722.81;;;17.63;38.51
75403;BME280;63975;47.538;18.972;2022-11-20T10:08:07;98720.81;;;17.65;38.42
75403;BME280;63975;47.538;18.972;2022-11-20T10:17:57;98698.66;;;17.68;38.74
75403;BME280;63975;47.538;18.972;2022-11-20T10:21:17;98692.19;;;17.70;38.26
75403;BME280;63975;47.538;18.972;2022-11-20T10:28:00;98684.13;;;17.72;38.28
75403;BME280;63975;47.538;18.972;2022-11-20T10:31:17;98671.00;;;17.72;38.58
75403;BME280;63975;47.538;18.972;2022-11-20T10:34:28;98674.81;;;17.69;38.61
75403;BME280;63975;47.538;18.972;2022-11-20T10:37:34;98673.00;;;17.70;38.30
75403;BME280;63975;47.538;18.972;2022-11-20T10:40:42;98667.75;;;17.70;38.32
75403;BME280;63975;47.538;18.972;2022-11-20T10:43:46;98665.13;;;17.70;38.24
75403;BME280;63975;47.538;18.972;2022-11-20T10:46:49;98681.31;;;17.73;38.41
75403;BME280;63975;47.538;18.972;2022-11-20T10:49:53;98671.81;;;17.72;38.49
75403;BME280;63975;47.538;18.972;2022-11-20T10:53:13;98672.84;;;17.71;38.57
75403;BME280;63975;47.538;18.972;2022-11-20T10:56:42;98667.00;;;17.76;38.45
75403;BME280;63975;47.538;18.972;2022-11-20T11:02:56;98667.97;;;17.68;38.45
75403;BME280;63975;47.538;18.972;2022-11-20T11:06:18;98685.75;;;17.73;38.27
75403;BME280;63975;47.538;18.972;2022-11-20T11:09:37;98691.66;;;17.75;38.60
75403;BME280;63975;47.538;18.972;2022-11-20T11:12:45;98686.00;;;17.78;38.44
75403;BME280;63975;47.538;18.972;2022-11-20T11:15:48;98689.19;;;17.73;38.29
75403;BME280;63975;47.538;18.972;2022-11-20T11:18:51;98696.06;;;17.74;38.59
75403;BME280;63975;47.538;18.972;2022-11-20T11:21:55;98697.88;;;17.74;38.46
75403;BME280;63975;47.538;18.972;2022-11-20T11:24:59;98705.38;;;17.77;38.55
75403;BME280;63975;47.538;18.972;2022-11-20T11:28:24;98701.13;;;17.76;38.46
75403;BME280;63975;47.538;18.972;2022-11-20T11:31:33;98705.22;;;17.78;38.62
75403;BME280;63975;47.538;18.972;2022-11-20T11:34:36;98699.97;;;17.78;38.35
75403;BME280;63975;47.538;18.972;2022-11-20T11:37:39;98701.38;;;17.81;38.10
75403;BME280;63975;47.538;18.972;2022-11-20T11:40:41;98689.63;;;17.77;38.54
75403;BME280;63975;47.538;18.972;2022-11-20T11:43:55;98686.25;;;17.83;38.24
75403;BME280;63975;47.538;18.972;2022-11-20T11:50:33;98674.09;;;17.82;38.26
75403;BME280;63975;47.538;18.972;2022-11-20T11:53:41;98673.94;;;17.83;38.03
75403;BME280;63975;47.538;18.972;2022-11-20T11:56:44;98664.25;;;17.84;38.26
75403;BME280;63975;47.538;18.972;2022-11-20T12:00:08;98667.03;;;17.82;38.40
75403;BME280;63975;47.538;18.972;2022-11-20T12:03:17;98667.25;;;17.81;38.36
75403;BME280;63975;47.538;18.972;2022-11-20T12:06:23;98669.66;;;17.82;38.10
75403;BME280;63975;47.538;18.972;2022-11-20T12:09:35;98671.69;;;17.80;38.06
75403;BME280;63975;47.538;18.972;2022-11-20T12:12:44;98676.94;;;17.80;38.26
75403;BME280;63975;47.538;18.972;2022-11-20T12:15:47;98674.75;;;17.84;38.39
75403;BME280;63975;47.538;18.972;2022-11-20T12:18:52;98675.72;;;17.83;38.04
75403;BME280;63975;47.538;18.972;2022-11-20T12:25:29;98672.28;;;17.82;38.30
75403;BME280;63975;47.538;18.972;2022-11-20T12:28:47;98667.25;;;17.81;38.02
75403;BME280;63975;47.538;18.972;2022-11-20T12:45:26;98658.72;;;17.79;38.03
75403;BME280;63975;47.538;18.972;2022-11-20T12:52:13;98661.56;;;17.77;38.19
75403;BME280;63975;47.538;18.972;2022-11-20T12:55:36;98654.28;;;17.79;38.23
75403;BME280;63975;47.538;18.972;2022-11-20T13:02:40;98661.34;;;17.79;38.19
75403;BME280;63975;47.538;18.972;2022-11-20T13:08:56;98671.06;;;17.78;38.28
75403;BME280;63975;47.538;18.972;2022-11-20T13:12:15;98671.69;;;17.80;38.06
75403;BME280;63975;47.538;18.972;2022-11-20T13:15:55;98676.31;;;17.78;38.32
75403;BME280;63975;47.538;18.972;2022-11-20T13:18:54;98678.31;;;17.76;38.36
75403;BME280;63975;47.538;18.972;2022-11-20T13:21:57;98676.50;;;17.77;38.49
75403;BME280;63975;47.538;18.972;2022-11-20T13:24:59;98670.44;;;17.76;38.20
75403;BME280;63975;47.538;18.972;2022-11-20T13:31:33;98670.63;;;17.75;38.32
75403;BME280;63975;47.538;18.972;2022-11-20T13:34:36;98660.94;;;17.75;38.31
75403;BME280;63975;47.538;18.972;2022-11-20T13:37:39;98660.56;;;17.78;38.32
75403;BME280;63975;47.538;18.972;2022-11-20T13:44:12;98645.59;;;17.79;38.36
75403;BME280;63975;47.538;18.972;2022-11-20T13:47:24;98645.59;;;17.79;38.05
75403;BME280;63975;47.538;18.972;2022-11-20T14:00:24;98632.25;;;17.74;38.20
75403;BME280;63975;47.538;18.972;2022-11-20T14:03:30;98635.47;;;17.76;38.24
75403;BME280;63975;47.538;18.972;2022-11-20T14:06:53;98629.81;;;17.72;38.31
75403;BME280;63975;47.538;18.972;2022-11-20T14:09:57;98634.66;;;17.75;38.26
75403;BME280;63975;47.538;18.972;2022-11-20T14:13:10;98632.44;;;17.72;38.42
75403;BME280;63975;47.538;18.972;2022-11-20T14:16:12;98624.31;;;17.67;38.22
75403;BME280;63975;47.538;18.972;2022-11-20T14:22:25;98636.25;;;17.70;38.14
75403;BME280;63975;47.538;18.972;2022-11-20T14:25:28;98626.75;;;17.69;38.21
75403;BME280;63975;47.538;18.972;2022-11-20T14:28:32;98637.69;;;17.72;38.43
75403;BME280;63975;47.538;18.972;2022-11-20T14:31:34;98639.69;;;17.70;38.50
75403;BME280;63975;47.538;18.972;2022-11-20T14:34:39;98652.63;;;17.72;38.30
75403;BME280;63975;47.538;18.972;2022-11-20T14:37:45;98653.63;;;17.71;38.32
75403;BME280;63975;47.538;18.972;2022-11-20T14:40:48;98656.25;;;17.71;38.28
75403;BME280;63975;47.538;18.972;2022-11-20T14:43:56;98650.19;;;17.70;38.42
75403;BME280;63975;47.538;18.972;2022-11-20T14:47:00;98648.78;;;17.68;38.42
75403;BME280;63975;47.538;18.972;2022-11-20T14:50:12;98646.53;;;17.65;38.39
75403;BME280;63975;47.538;18.972;2022-11-20T14:53:22;98654.84;;;17.68;38.47
75403;BME280;63975;47.538;18.972;2022-11-20T14:56:25;98657.63;;;17.67;38.42
75403;BME280;63975;47.538;18.972;2022-11-20T14:59:33;98661.25;;;17.66;38.51
75403;BME280;63975;47.538;18.972;2022-11-20T15:02:41;98666.72;;;17.64;38.40
75403;BME280;63975;47.538;18.972;2022-11-20T15:05:46;98664.63;;;17.59;38.49
75403;BME280;63975;47.538;18.972;2022-11-20T15:08:52;98671.31;;;17.62;38.55
75403;BME280;63975;47.538;18.972;2022-11-20T15:11:57;98663.81;;;17.59;38.43
75403;BME280;63975;47.538;18.972;2022-11-20T15:15:01;98673.56;;;17.65;38.33
75403;BME280;63975;47.538;18.972;2022-11-20T15:18:04;98666.72;;;17.64;38.52
75403;BME280;63975;47.538;18.972;2022-11-20T15:21:12;98669.88;;;17.59;38.57
75403;BME280;63975;47.538;18.972;2022-11-20T15:24:14;98673.16;;;17.61;38.30
75403;BME280;63975;47.538;18.972;2022-11-20T15:27:17;98670.53;;;17.61;38.37
75403;BME280;63975;47.538;18.972;2022-11-20T15:30:20;98670.72;;;17.60;38.60
75403;BME280;63975;47.538;18.972;2022-11-20T15:33:22;98675.53;;;17.56;38.32
75403;BME280;63975;47.538;18.972;2022-11-20T15:36:25;98676.13;;;17.58;38.39
75403;BME280;63975;47.538;18.972;2022-11-20T15:39:27;98678.59;;;17.60;38.66
75403;BME280;63975;47.538;18.972;2022-11-20T15:42:29;98680.94;;;17.55;38.43
75403;BME280;63975;47.538;18.972;2022-11-20T15:48:59;98668.97;;;17.52;38.73
75403;BME280;63975;47.538;18.972;2022-11-20T15:52:02;98676.84;;;17.52;38.78
75403;BME280;63975;47.538;18.972;2022-11-20T15:55:09;98673.41;;;17.52;38.64
75403;BME280;63975;47.538;18.972;2022-11-20T15:58:11;98678.50;;;17.53;38.81
75403;BME280;63975;47.538;18.972;2022-11-20T16:01:17;98673.25;;;17.53;38.75
75403;BME280;63975;47.538;18.972;2022-11-20T16:04:19;98667.38;;;17.51;38.63
75403;BME280;63975;47.538;18.972;2022-11-20T16:07:22;98670.00;;;17.51;38.71
75403;BME280;63975;47.538;18.972;2022-11-20T16:10:24;98667.94;;;17.47;38.88
75403;BME280;63975;47.538;18.972;2022-11-20T16:13:27;98670.38;;;17.48;38.90
75403;BME280;63975;47.538;18.972;2022-11-20T16:16:48;98667.13;;;17.46;38.98
75403;BME280;63975;47.538;18.972;2022-11-20T16:19:50;98663.88;;;17.44;38.75
75403;BME280;63975;47.538;18.972;2022-11-20T16:22:53;98666.69;;;17.43;38.61
75403;BME280;63975;47.538;18.972;2022-11-20T16:25:55;98674.38;;;17.44;38.83
75403;BME280;63975;47.538;18.972;2022-11-20T16:28:59;98659.56;;;17.37;38.61
75403;BME280;63975;47.538;18.972;2022-11-20T16:32:01;98671.94;;;17.43;38.52
75403;BME280;63975;47.538;18.972;2022-11-20T16:35:04;98672.94;;;17.42;39.01
75403;BME280;63975;47.538;18.972;2022-11-20T16:38:07;98669.50;;;17.41;38.65
75403;BME280;63975;47.538;18.972;2022-11-20T16:41:09;98673.94;;;17.41;38.83
75403;BME280;63975;47.538;18.972;2022-11-20T16:44:15;98672.13;;;17.41;38.70
75403;BME280;63975;47.538;18.972;2022-11-20T16:47:17;98666.06;;;17.41;38.61
75403;BME280;63975;47.538;18.972;2022-11-20T16:50:20;98667.06;;;17.40;38.68
75403;BME280;63975;47.538;18.972;2022-11-20T16:53:22;98665.06;;;17.42;38.71
75403;BME280;63975;47.538;18.972;2022-11-20T16:56:26;98653.75;;;17.41;38.58
75403;BME280;63975;47.538;18.972;2022-11-20T16:59:28;98651.13;;;17.41;38.71
75403;BME280;63975;47.538;18.972;2022-11-20T17:02:30;98647.06;;;17.39;38.52
75403;BME280;63975;47.538;18.972;2022-11-20T17:05:34;98650.50;;;17.39;38.75
75403;BME280;63975;47.538;18.972;2022-11-20T17:08:36;98645.44;;;17.38;38.91
75403;BME280;63975;47.538;18.972;2022-11-20T17:11:39;98645.44;;;17.38;38.83
75403;BME280;63975;47.538;18.972;2022-11-20T17:14:41;98637.16;;;17.34;38.69
75403;BME280;63975;47.538;18.972;2022-11-20T17:17:43;98635.50;;;17.33;38.76
75403;BME280;63975;47.538;18.972;2022-11-20T17:20:51;98626.22;;;17.31;38.75
75403;BME280;63975;47.538;18.972;2022-11-20T17:23:53;98624.19;;;17.33;38.98
75403;BME280;63975;47.538;18.972;2022-11-20T17:26:56;98626.00;;;17.32;38.81
75403;BME280;63975;47.538;18.972;2022-11-20T17:29:58;98618.94;;;17.33;38.89